アスタナ の空港の天気 - METARとTAF

アスタナ国際空港 ( UACC / TSE ) - カザフスタン アスタナ
飛行場実況気象(Metar)
観測時間10/20 09:00 QYZT (10/20 04:00 UTC)
風向・風速東北東 10m/s
視程10km以上
天気現象
全天の4割程度の雲 雲底高度 460m
気温-4℃
湿度68%
気圧1028hPa
METARUACC 200400Z 06010MPS 9999 SCT015 M04/M09 Q1028 R04/9///65 NOSIG RMK QFE739/0986
過去の天気等 Google飛行場航空写真 Wunderground天気予報

過去48時間のMETAR

飛行場予報(TAF)
発表時間: 10/20 04:00 QYZT (10/19 23:00 UTC)
予報対象時間: 20日5時 QYZT ~ 21日5時 QYZT
風向・風速北東 8m/s 瞬間風速 13m/s
視程10km以上
全天の4割程度の雲 雲底高度 300m
全天の8割程度の雲 雲底高度 610m
20日5時 QYZT ~ 20日11時 QYZT に一時的に
風向・風速北東 10m/s 瞬間風速 15m/s
天気現象弱いしゅう雪
全天の4割程度の雲 雲底高度 150m
全天の8割程度の積乱雲 雲底高度 460m
20日16時 QYZT ~ 20日18時 QYZT に徐々に
風向・風速北東 6m/s
TAF UACC 192300Z 2000/2024 05008G13MPS 9999 SCT010 BKN020 TX00/2009Z TNM06/2001Z
TEMPO 2000/2006 05010G15MPS -SHSN SCT005 BKN015CB
BECMG 2011/2013 05006MPS